logo
Search for airport 
image banner adimage banner adimage banner ad
image banner ad

MRMO - Moravia De Chirripo

Located in Turrialba, Costa Rica

ICAO - , IATA -

Data provided by Airmate  

General information

Coordinates: N9°49'57" W83°26'28"
Elevation is 3623 feet MSL.
 
View others Airports in Cartago

Operational data

Special qualification required
Current time UTC:
Current local time:
Weather at : MRLM - Limon Intl ( 48 km )
METAR: MRLM 132000Z 23008KT 9999 SCT020 BKN130 25/23 A2996 REDZ
TAF: MRLM 131700Z 1318/1418 10005KT 9999 SCT020 BKN100 TX30/1321Z TN22/1411Z FM140000 25005KT 9999 BKN020 TEMPO 1406/1412 RA BECMG 1415/1417 04007KT CAVOK
View NOTAMs / SUP AIP / TFR affecting this airport [VIEW]
Communications frequencies: [VIEW]

Runways:

Airport contact information

Address: Turrialba Costa Rica

Satellite view of MRMO